Airfield :
LOGIN :

Register | Disclaimer

   EN    FR    IT 

 










Legend :    VFR   Marginal VFR   IFR   Intensive IFR   Very Intensive IFR
Visi :
Ceiling :
>= 8 km
>= 3000ft
5 to 8 km
1000 to 3000 ft
1500m to 5 km
500 to 1000 ft
800 to 1500m
200 to 500 ft
< 800m
< 200 ft
Symbols :   Thunderstorms  Fog  Heavy snow  Heavy precipitations  Wind > 20 kt
SIGMETs :     Misc.  Thunderstorms  Icing  Turbulence  Mountain Waves  Volcanic Ashes






- Airport Elevation : 1400 ft


LSME - Luzern Emmen

CURRENT METAR :
  • 230750Z 17003KT 140V230 6000 RA FEW030 SCT039 OVC050 11/10 Q1017 RMK WHT

EXPIRED METARs :
  • 230720Z 00000KT 5000 RA SCT037 OVC044 12/11 Q1017 RMK WHT
  • 230650Z 17003KT 140V210 4000 RA OVC042 12/11 Q1017 RMK SVFR GRN
  • 230620Z 20003KT 170V230 5000 RA FEW026 BKN038 OVC051 12/11 Q1017 RMK WHT
  • 230520Z 22001KT 4000 RA FEW031 BKN043 OVC059 12/11 Q1017 RMK GRN
  • 230450Z 21003KT 7000 -RA FEW038 BKN057 12/11 Q1017 RERA RMK WHT
  • 230420Z AUTO 21003KT 7000NDV -RA SCT031 BKN046 BKN058 12/11 Q1017 RERA RMK
  • 230350Z AUTO 21003KT 6000NDV -RA FEW008 BKN059 12/11 Q1016 RERA RMK
  • 230320Z AUTO 23002KT 9000NDV -RA BKN060 OVC070 12/12 Q1016 RMK
  • 230250Z AUTO 00000KT 9999NDV -RA BKN064 12/12 Q1016 RMK

Expired Forecast.



MET'MAP, your aeronautical weather chart ! - Copyright ORBIFLY December 2007 - Disclaimer

ORBIFLY MET'MAP TEAM :

Programming & Development : Alexandra Zaïnal
Original concept : Baudouin d'Aumeries
Technical & hardware support : Manuel Goepfert
Assistance : Marc-Olivier Méhu




SOURCES & CREDITS :

   NOAA